sensor_id;sensor_type;location;lat;lon;timestamp;P1;durP1;ratioP1;P2;durP2;ratioP2
71484;SDS011;59300;52.074;4.758;2022-10-22T00:00:50;24.48;;;11.15;;
71484;SDS011;59300;52.074;4.758;2022-10-22T00:03:52;20.13;;;11.02;;
71484;SDS011;59300;52.074;4.758;2022-10-22T00:06:53;24.92;;;10.93;;
71484;SDS011;59300;52.074;4.758;2022-10-22T00:09:55;20.95;;;9.90;;
71484;SDS011;59300;52.074;4.758;2022-10-22T00:12:56;19.48;;;9.52;;
71484;SDS011;59300;52.074;4.758;2022-10-22T00:15:58;19.67;;;9.88;;
71484;SDS011;59300;52.074;4.758;2022-10-22T00:18:59;21.45;;;9.77;;
71484;SDS011;59300;52.074;4.758;2022-10-22T00:22:01;18.73;;;9.27;;
71484;SDS011;59300;52.074;4.758;2022-10-22T00:25:02;19.88;;;9.10;;
71484;SDS011;59300;52.074;4.758;2022-10-22T00:28:04;19.23;;;9.85;;
71484;SDS011;59300;52.074;4.758;2022-10-22T00:31:05;24.25;;;10.15;;
71484;SDS011;59300;52.074;4.758;2022-10-22T00:34:07;19.50;;;9.80;;
71484;SDS011;59300;52.074;4.758;2022-10-22T00:37:08;18.25;;;10.15;;
71484;SDS011;59300;52.074;4.758;2022-10-22T00:40:10;17.48;;;9.77;;
71484;SDS011;59300;52.074;4.758;2022-10-22T00:43:13;16.02;;;9.43;;
71484;SDS011;59300;52.074;4.758;2022-10-22T00:46:17;25.08;;;10.23;;
71484;SDS011;59300;52.074;4.758;2022-10-22T00:49:19;19.52;;;10.02;;
71484;SDS011;59300;52.074;4.758;2022-10-22T00:52:20;21.55;;;10.50;;
71484;SDS011;59300;52.074;4.758;2022-10-22T00:55:23;25.63;;;9.88;;
71484;SDS011;59300;52.074;4.758;2022-10-22T00:58:27;24.98;;;11.55;;
71484;SDS011;59300;52.074;4.758;2022-10-22T01:01:31;22.90;;;10.73;;
71484;SDS011;59300;52.074;4.758;2022-10-22T01:04:32;25.35;;;10.63;;
71484;SDS011;59300;52.074;4.758;2022-10-22T01:07:39;20.17;;;9.63;;
71484;SDS011;59300;52.074;4.758;2022-10-22T01:31:17;10.85;;;5.60;;
71484;SDS011;59300;52.074;4.758;2022-10-22T01:34:21;14.30;;;5.70;;
71484;SDS011;59300;52.074;4.758;2022-10-22T01:37:25;16.40;;;5.80;;
71484;SDS011;59300;52.074;4.758;2022-10-22T01:40:30;12.05;;;5.47;;
71484;SDS011;59300;52.074;4.758;2022-10-22T01:43:33;13.13;;;5.47;;
71484;SDS011;59300;52.074;4.758;2022-10-22T01:46:34;23.88;;;6.63;;
71484;SDS011;59300;52.074;4.758;2022-10-22T01:56:39;15.02;;;5.85;;
71484;SDS011;59300;52.074;4.758;2022-10-22T01:59:44;13.70;;;5.78;;
71484;SDS011;59300;52.074;4.758;2022-10-22T02:03:02;17.05;;;5.88;;
71484;SDS011;59300;52.074;4.758;2022-10-22T02:06:12;13.85;;;5.78;;
71484;SDS011;59300;52.074;4.758;2022-10-22T02:09:19;17.33;;;6.05;;
71484;SDS011;59300;52.074;4.758;2022-10-22T02:12:24;17.02;;;6.60;;
71484;SDS011;59300;52.074;4.758;2022-10-22T02:15:28;17.30;;;6.57;;
71484;SDS011;59300;52.074;4.758;2022-10-22T02:18:32;17.50;;;6.63;;
71484;SDS011;59300;52.074;4.758;2022-10-22T02:21:39;16.90;;;6.18;;
71484;SDS011;59300;52.074;4.758;2022-10-22T02:24:41;17.20;;;6.00;;
71484;SDS011;59300;52.074;4.758;2022-10-22T02:27:47;16.40;;;6.35;;
71484;SDS011;59300;52.074;4.758;2022-10-22T02:30:54;17.17;;;7.00;;
71484;SDS011;59300;52.074;4.758;2022-10-22T02:34:01;16.98;;;6.07;;
71484;SDS011;59300;52.074;4.758;2022-10-22T02:37:07;16.58;;;6.32;;
71484;SDS011;59300;52.074;4.758;2022-10-22T02:40:09;17.63;;;6.30;;
71484;SDS011;59300;52.074;4.758;2022-10-22T02:43:11;16.00;;;6.10;;
71484;SDS011;59300;52.074;4.758;2022-10-22T02:46:13;18.20;;;6.82;;
71484;SDS011;59300;52.074;4.758;2022-10-22T02:49:14;15.07;;;5.65;;
71484;SDS011;59300;52.074;4.758;2022-10-22T02:52:16;15.30;;;5.88;;
71484;SDS011;59300;52.074;4.758;2022-10-22T02:55:17;15.10;;;5.25;;
71484;SDS011;59300;52.074;4.758;2022-10-22T02:58:18;14.57;;;5.80;;
71484;SDS011;59300;52.074;4.758;2022-10-22T03:01:20;14.48;;;5.65;;
71484;SDS011;59300;52.074;4.758;2022-10-22T03:04:21;14.52;;;5.18;;
71484;SDS011;59300;52.074;4.758;2022-10-22T03:07:23;16.52;;;5.68;;
71484;SDS011;59300;52.074;4.758;2022-10-22T03:10:24;12.40;;;5.00;;
71484;SDS011;59300;52.074;4.758;2022-10-22T03:13:26;20.13;;;5.50;;
71484;SDS011;59300;52.074;4.758;2022-10-22T03:16:27;14.43;;;5.65;;
71484;SDS011;59300;52.074;4.758;2022-10-22T03:19:29;20.80;;;5.50;;
71484;SDS011;59300;52.074;4.758;2022-10-22T03:22:31;20.65;;;5.72;;
71484;SDS011;59300;52.074;4.758;2022-10-22T03:25:34;15.20;;;5.43;;
71484;SDS011;59300;52.074;4.758;2022-10-22T03:28:36;12.50;;;5.32;;
71484;SDS011;59300;52.074;4.758;2022-10-22T03:31:40;26.52;;;5.47;;
71484;SDS011;59300;52.074;4.758;2022-10-22T03:34:41;21.17;;;5.80;;
71484;SDS011;59300;52.074;4.758;2022-10-22T03:37:42;13.15;;;5.47;;
71484;SDS011;59300;52.074;4.758;2022-10-22T03:40:44;14.27;;;5.30;;
71484;SDS011;59300;52.074;4.758;2022-10-22T03:43:46;13.50;;;5.20;;
71484;SDS011;59300;52.074;4.758;2022-10-22T03:46:48;12.43;;;4.50;;
71484;SDS011;59300;52.074;4.758;2022-10-22T03:49:50;13.98;;;5.57;;
71484;SDS011;59300;52.074;4.758;2022-10-22T03:52:52;14.35;;;4.97;;
71484;SDS011;59300;52.074;4.758;2022-10-22T03:55:53;14.05;;;4.60;;
71484;SDS011;59300;52.074;4.758;2022-10-22T03:58:55;14.02;;;4.47;;
71484;SDS011;59300;52.074;4.758;2022-10-22T04:01:58;12.83;;;4.53;;
71484;SDS011;59300;52.074;4.758;2022-10-22T04:04:59;15.65;;;4.85;;
71484;SDS011;59300;52.074;4.758;2022-10-22T04:08:01;14.18;;;4.47;;
71484;SDS011;59300;52.074;4.758;2022-10-22T04:11:02;15.63;;;4.05;;
71484;SDS011;59300;52.074;4.758;2022-10-22T04:14:04;16.15;;;4.45;;
71484;SDS011;59300;52.074;4.758;2022-10-22T04:17:06;10.05;;;3.90;;
71484;SDS011;59300;52.074;4.758;2022-10-22T04:20:09;14.18;;;4.03;;
71484;SDS011;59300;52.074;4.758;2022-10-22T04:23:11;13.77;;;4.40;;
71484;SDS011;59300;52.074;4.758;2022-10-22T04:26:13;14.82;;;4.30;;
71484;SDS011;59300;52.074;4.758;2022-10-22T04:29:15;13.32;;;4.32;;
71484;SDS011;59300;52.074;4.758;2022-10-22T04:32:16;15.45;;;4.07;;
71484;SDS011;59300;52.074;4.758;2022-10-22T04:35:18;9.55;;;4.22;;
71484;SDS011;59300;52.074;4.758;2022-10-22T04:38:19;11.43;;;3.92;;
71484;SDS011;59300;52.074;4.758;2022-10-22T04:41:22;11.90;;;3.70;;
71484;SDS011;59300;52.074;4.758;2022-10-22T04:44:25;8.90;;;4.03;;
71484;SDS011;59300;52.074;4.758;2022-10-22T04:47:27;12.70;;;4.03;;
71484;SDS011;59300;52.074;4.758;2022-10-22T04:50:28;12.25;;;4.10;;
71484;SDS011;59300;52.074;4.758;2022-10-22T04:53:29;15.60;;;4.50;;
71484;SDS011;59300;52.074;4.758;2022-10-22T04:56:31;13.30;;;4.00;;
71484;SDS011;59300;52.074;4.758;2022-10-22T04:59:33;12.38;;;4.57;;
71484;SDS011;59300;52.074;4.758;2022-10-22T05:02:34;14.85;;;4.40;;
71484;SDS011;59300;52.074;4.758;2022-10-22T05:05:36;20.85;;;4.78;;
71484;SDS011;59300;52.074;4.758;2022-10-22T05:08:37;17.52;;;4.55;;
71484;SDS011;59300;52.074;4.758;2022-10-22T05:11:39;8.43;;;4.05;;
71484;SDS011;59300;52.074;4.758;2022-10-22T05:14:42;16.83;;;4.68;;
71484;SDS011;59300;52.074;4.758;2022-10-22T05:17:45;16.95;;;4.78;;
71484;SDS011;59300;52.074;4.758;2022-10-22T05:20:46;10.98;;;4.45;;
71484;SDS011;59300;52.074;4.758;2022-10-22T05:23:48;12.25;;;4.95;;
71484;SDS011;59300;52.074;4.758;2022-10-22T05:26:50;15.93;;;4.97;;
71484;SDS011;59300;52.074;4.758;2022-10-22T05:29:53;19.42;;;5.13;;
71484;SDS011;59300;52.074;4.758;2022-10-22T05:32:54;13.15;;;5.47;;
71484;SDS011;59300;52.074;4.758;2022-10-22T05:35:56;13.65;;;4.95;;
71484;SDS011;59300;52.074;4.758;2022-10-22T05:38:58;13.25;;;5.03;;
71484;SDS011;59300;52.074;4.758;2022-10-22T05:41:59;21.35;;;5.70;;
71484;SDS011;59300;52.074;4.758;2022-10-22T05:45:01;12.90;;;5.07;;
71484;SDS011;59300;52.074;4.758;2022-10-22T05:48:03;9.75;;;4.82;;
71484;SDS011;59300;52.074;4.758;2022-10-22T05:51:05;16.63;;;4.90;;
71484;SDS011;59300;52.074;4.758;2022-10-22T05:54:15;15.88;;;4.80;;
71484;SDS011;59300;52.074;4.758;2022-10-22T05:57:18;20.88;;;5.10;;
71484;SDS011;59300;52.074;4.758;2022-10-22T06:00:19;13.63;;;4.55;;
71484;SDS011;59300;52.074;4.758;2022-10-22T06:03:21;15.82;;;4.57;;
71484;SDS011;59300;52.074;4.758;2022-10-22T06:06:26;12.75;;;5.00;;
71484;SDS011;59300;52.074;4.758;2022-10-22T06:09:34;13.95;;;5.20;;
71484;SDS011;59300;52.074;4.758;2022-10-22T06:12:37;13.93;;;5.65;;
71484;SDS011;59300;52.074;4.758;2022-10-22T06:15:39;15.50;;;4.95;;
71484;SDS011;59300;52.074;4.758;2022-10-22T06:18:41;12.85;;;4.53;;
71484;SDS011;59300;52.074;4.758;2022-10-22T06:21:42;14.93;;;5.45;;
71484;SDS011;59300;52.074;4.758;2022-10-22T06:24:44;16.08;;;5.38;;
71484;SDS011;59300;52.074;4.758;2022-10-22T06:27:49;14.88;;;5.18;;
71484;SDS011;59300;52.074;4.758;2022-10-22T06:30:51;18.83;;;5.25;;
71484;SDS011;59300;52.074;4.758;2022-10-22T06:33:52;10.55;;;4.93;;
71484;SDS011;59300;52.074;4.758;2022-10-22T06:36:54;16.45;;;4.82;;
71484;SDS011;59300;52.074;4.758;2022-10-22T06:39:55;15.60;;;5.10;;
71484;SDS011;59300;52.074;4.758;2022-10-22T06:43:00;20.80;;;5.18;;
71484;SDS011;59300;52.074;4.758;2022-10-22T06:49:03;14.55;;;5.15;;
71484;SDS011;59300;52.074;4.758;2022-10-22T06:52:05;21.85;;;4.60;;
71484;SDS011;59300;52.074;4.758;2022-10-22T06:55:06;10.13;;;3.88;;
71484;SDS011;59300;52.074;4.758;2022-10-22T06:58:08;8.32;;;3.35;;
71484;SDS011;59300;52.074;4.758;2022-10-22T07:01:11;16.10;;;3.63;;
71484;SDS011;59300;52.074;4.758;2022-10-22T07:04:14;12.55;;;3.75;;
71484;SDS011;59300;52.074;4.758;2022-10-22T07:07:16;12.13;;;3.67;;
71484;SDS011;59300;52.074;4.758;2022-10-22T07:10:17;14.20;;;3.63;;
71484;SDS011;59300;52.074;4.758;2022-10-22T07:13:19;11.23;;;3.03;;
71484;SDS011;59300;52.074;4.758;2022-10-22T07:16:20;12.90;;;3.08;;
71484;SDS011;59300;52.074;4.758;2022-10-22T07:19:22;8.25;;;2.70;;
71484;SDS011;59300;52.074;4.758;2022-10-22T07:22:23;12.48;;;2.95;;
71484;SDS011;59300;52.074;4.758;2022-10-22T07:25:25;13.43;;;2.78;;
71484;SDS011;59300;52.074;4.758;2022-10-22T07:28:26;12.13;;;2.80;;
71484;SDS011;59300;52.074;4.758;2022-10-22T07:31:28;11.27;;;3.28;;
71484;SDS011;59300;52.074;4.758;2022-10-22T07:34:30;10.45;;;2.70;;
71484;SDS011;59300;52.074;4.758;2022-10-22T07:37:32;11.45;;;3.05;;
71484;SDS011;59300;52.074;4.758;2022-10-22T07:40:33;10.13;;;2.85;;
71484;SDS011;59300;52.074;4.758;2022-10-22T07:43:36;7.68;;;2.40;;
71484;SDS011;59300;52.074;4.758;2022-10-22T07:46:38;14.98;;;2.90;;
71484;SDS011;59300;52.074;4.758;2022-10-22T07:49:39;11.43;;;2.78;;
71484;SDS011;59300;52.074;4.758;2022-10-22T07:52:41;16.13;;;2.90;;
71484;SDS011;59300;52.074;4.758;2022-10-22T07:55:46;9.25;;;2.60;;
71484;SDS011;59300;52.074;4.758;2022-10-22T07:58:48;10.93;;;2.80;;
71484;SDS011;59300;52.074;4.758;2022-10-22T08:01:50;12.32;;;2.80;;
71484;SDS011;59300;52.074;4.758;2022-10-22T08:04:51;9.23;;;2.38;;
71484;SDS011;59300;52.074;4.758;2022-10-22T08:07:53;8.75;;;2.33;;
71484;SDS011;59300;52.074;4.758;2022-10-22T08:10:54;11.60;;;2.67;;
71484;SDS011;59300;52.074;4.758;2022-10-22T08:13:57;10.85;;;2.40;;
71484;SDS011;59300;52.074;4.758;2022-10-22T08:16:59;9.77;;;2.25;;
71484;SDS011;59300;52.074;4.758;2022-10-22T08:20:01;15.77;;;2.80;;
71484;SDS011;59300;52.074;4.758;2022-10-22T08:23:03;11.52;;;3.83;;
71484;SDS011;59300;52.074;4.758;2022-10-22T08:26:05;13.27;;;2.42;;
71484;SDS011;59300;52.074;4.758;2022-10-22T08:29:07;11.95;;;2.70;;
71484;SDS011;59300;52.074;4.758;2022-10-22T08:32:09;10.70;;;2.33;;
71484;SDS011;59300;52.074;4.758;2022-10-22T08:35:10;14.50;;;3.25;;
71484;SDS011;59300;52.074;4.758;2022-10-22T08:38:17;12.10;;;2.63;;
71484;SDS011;59300;52.074;4.758;2022-10-22T08:41:20;12.45;;;2.50;;
71484;SDS011;59300;52.074;4.758;2022-10-22T08:51:03;12.18;;;2.80;;
71484;SDS011;59300;52.074;4.758;2022-10-22T08:54:21;13.23;;;2.63;;
71484;SDS011;59300;52.074;4.758;2022-10-22T09:01:05;7.80;;;2.42;;
71484;SDS011;59300;52.074;4.758;2022-10-22T09:04:18;9.98;;;2.63;;
71484;SDS011;59300;52.074;4.758;2022-10-22T09:07:42;6.68;;;1.92;;
71484;SDS011;59300;52.074;4.758;2022-10-22T09:10:48;8.63;;;2.40;;
71484;SDS011;59300;52.074;4.758;2022-10-22T09:13:53;15.05;;;3.08;;
71484;SDS011;59300;52.074;4.758;2022-10-22T09:17:11;11.20;;;2.57;;
71484;SDS011;59300;52.074;4.758;2022-10-22T09:20:19;8.18;;;2.55;;
71484;SDS011;59300;52.074;4.758;2022-10-22T09:23:31;11.05;;;3.35;;
71484;SDS011;59300;52.074;4.758;2022-10-22T09:26:36;14.38;;;3.33;;
71484;SDS011;59300;52.074;4.758;2022-10-22T09:29:39;16.05;;;3.50;;
71484;SDS011;59300;52.074;4.758;2022-10-22T09:32:42;10.27;;;3.10;;
71484;SDS011;59300;52.074;4.758;2022-10-22T09:35:45;10.63;;;3.42;;
71484;SDS011;59300;52.074;4.758;2022-10-22T09:38:51;12.93;;;3.25;;
71484;SDS011;59300;52.074;4.758;2022-10-22T09:41:53;12.85;;;3.22;;
71484;SDS011;59300;52.074;4.758;2022-10-22T09:44:56;10.57;;;2.80;;
71484;SDS011;59300;52.074;4.758;2022-10-22T09:48:19;10.25;;;2.53;;
71484;SDS011;59300;52.074;4.758;2022-10-22T09:51:23;10.38;;;2.45;;
71484;SDS011;59300;52.074;4.758;2022-10-22T09:54:37;10.77;;;2.70;;
71484;SDS011;59300;52.074;4.758;2022-10-22T09:57:41;9.52;;;2.35;;
71484;SDS011;59300;52.074;4.758;2022-10-22T10:00:45;9.77;;;2.55;;
71484;SDS011;59300;52.074;4.758;2022-10-22T10:03:51;11.95;;;2.30;;
71484;SDS011;59300;52.074;4.758;2022-10-22T10:06:54;11.93;;;2.10;;
71484;SDS011;59300;52.074;4.758;2022-10-22T10:09:56;11.32;;;2.05;;
71484;SDS011;59300;52.074;4.758;2022-10-22T10:26:40;9.23;;;2.08;;
71484;SDS011;59300;52.074;4.758;2022-10-22T10:30:00;11.02;;;2.10;;
71484;SDS011;59300;52.074;4.758;2022-10-22T10:33:22;9.15;;;1.90;;
71484;SDS011;59300;52.074;4.758;2022-10-22T10:43:04;9.45;;;2.13;;
71484;SDS011;59300;52.074;4.758;2022-10-22T10:46:18;13.02;;;2.40;;
71484;SDS011;59300;52.074;4.758;2022-10-22T10:49:33;15.05;;;2.00;;
71484;SDS011;59300;52.074;4.758;2022-10-22T10:52:41;14.82;;;2.58;;
71484;SDS011;59300;52.074;4.758;2022-10-22T11:02:36;8.75;;;1.73;;
71484;SDS011;59300;52.074;4.758;2022-10-22T11:05:54;10.73;;;2.20;;
71484;SDS011;59300;52.074;4.758;2022-10-22T11:09:04;12.52;;;2.47;;
71484;SDS011;59300;52.074;4.758;2022-10-22T11:12:16;9.02;;;1.85;;
71484;SDS011;59300;52.074;4.758;2022-10-22T11:18:27;13.73;;;2.35;;
71484;SDS011;59300;52.074;4.758;2022-10-22T11:21:39;14.52;;;2.28;;
71484;SDS011;59300;52.074;4.758;2022-10-22T11:28:17;13.70;;;2.15;;
71484;SDS011;59300;52.074;4.758;2022-10-22T11:31:25;13.82;;;2.42;;
71484;SDS011;59300;52.074;4.758;2022-10-22T11:34:33;12.88;;;2.22;;
71484;SDS011;59300;52.074;4.758;2022-10-22T11:37:43;13.48;;;1.77;;
71484;SDS011;59300;52.074;4.758;2022-10-22T11:40:49;13.15;;;2.78;;
71484;SDS011;59300;52.074;4.758;2022-10-22T11:44:26;16.33;;;2.50;;
71484;SDS011;59300;52.074;4.758;2022-10-22T11:47:31;9.48;;;2.00;;
71484;SDS011;59300;52.074;4.758;2022-10-22T11:53:45;18.85;;;2.40;;
71484;SDS011;59300;52.074;4.758;2022-10-22T11:56:57;8.93;;;2.00;;
71484;SDS011;59300;52.074;4.758;2022-10-22T12:04:38;13.23;;;2.00;;
71484;SDS011;59300;52.074;4.758;2022-10-22T12:14:02;14.25;;;2.67;;
71484;SDS011;59300;52.074;4.758;2022-10-22T12:17:24;12.32;;;2.05;;
71484;SDS011;59300;52.074;4.758;2022-10-22T12:20:28;11.73;;;2.10;;
71484;SDS011;59300;52.074;4.758;2022-10-22T12:23:31;13.25;;;2.47;;
71484;SDS011;59300;52.074;4.758;2022-10-22T12:26:35;11.25;;;2.03;;
71484;SDS011;59300;52.074;4.758;2022-10-22T12:29:37;15.57;;;2.50;;
71484;SDS011;59300;52.074;4.758;2022-10-22T12:32:38;11.52;;;2.40;;
71484;SDS011;59300;52.074;4.758;2022-10-22T12:35:41;9.88;;;2.42;;
71484;SDS011;59300;52.074;4.758;2022-10-22T12:38:45;10.65;;;2.53;;
71484;SDS011;59300;52.074;4.758;2022-10-22T12:41:47;11.65;;;2.53;;
71484;SDS011;59300;52.074;4.758;2022-10-22T12:44:53;11.23;;;2.55;;
71484;SDS011;59300;52.074;4.758;2022-10-22T12:48:07;14.68;;;2.80;;
71484;SDS011;59300;52.074;4.758;2022-10-22T12:51:16;15.02;;;2.97;;
71484;SDS011;59300;52.074;4.758;2022-10-22T12:57:27;17.58;;;2.38;;
71484;SDS011;59300;52.074;4.758;2022-10-22T13:00:31;12.57;;;2.88;;
71484;SDS011;59300;52.074;4.758;2022-10-22T13:03:36;15.95;;;2.47;;
71484;SDS011;59300;52.074;4.758;2022-10-22T13:06:42;13.88;;;2.88;;
71484;SDS011;59300;52.074;4.758;2022-10-22T13:12:56;14.52;;;2.50;;
71484;SDS011;59300;52.074;4.758;2022-10-22T13:19:36;11.75;;;2.17;;
71484;SDS011;59300;52.074;4.758;2022-10-22T13:26:34;15.57;;;3.35;;
71484;SDS011;59300;52.074;4.758;2022-10-22T13:29:37;15.15;;;2.80;;
71484;SDS011;59300;52.074;4.758;2022-10-22T13:32:41;13.30;;;2.47;;
71484;SDS011;59300;52.074;4.758;2022-10-22T13:35:49;13.30;;;2.10;;
71484;SDS011;59300;52.074;4.758;2022-10-22T13:38:50;14.85;;;2.55;;
71484;SDS011;59300;52.074;4.758;2022-10-22T13:41:52;15.48;;;2.30;;
71484;SDS011;59300;52.074;4.758;2022-10-22T13:44:53;9.85;;;2.00;;
71484;SDS011;59300;52.074;4.758;2022-10-22T13:47:55;11.70;;;2.55;;
71484;SDS011;59300;52.074;4.758;2022-10-22T13:50:56;11.13;;;2.35;;
71484;SDS011;59300;52.074;4.758;2022-10-22T13:53:58;12.52;;;2.17;;
71484;SDS011;59300;52.074;4.758;2022-10-22T13:56:59;10.82;;;2.13;;
71484;SDS011;59300;52.074;4.758;2022-10-22T14:00:01;11.52;;;2.10;;
71484;SDS011;59300;52.074;4.758;2022-10-22T14:03:13;11.50;;;2.38;;
71484;SDS011;59300;52.074;4.758;2022-10-22T14:06:17;15.57;;;2.38;;
71484;SDS011;59300;52.074;4.758;2022-10-22T14:09:19;10.60;;;2.00;;
71484;SDS011;59300;52.074;4.758;2022-10-22T14:12:21;14.98;;;2.35;;
71484;SDS011;59300;52.074;4.758;2022-10-22T14:15:23;11.77;;;2.20;;
71484;SDS011;59300;52.074;4.758;2022-10-22T14:18:28;15.52;;;2.42;;
71484;SDS011;59300;52.074;4.758;2022-10-22T14:21:32;15.93;;;3.30;;
71484;SDS011;59300;52.074;4.758;2022-10-22T14:24:36;15.82;;;3.20;;
71484;SDS011;59300;52.074;4.758;2022-10-22T14:27:37;19.02;;;4.53;;
71484;SDS011;59300;52.074;4.758;2022-10-22T14:30:39;12.95;;;2.72;;
71484;SDS011;59300;52.074;4.758;2022-10-22T14:33:41;14.35;;;2.80;;
71484;SDS011;59300;52.074;4.758;2022-10-22T14:36:43;18.23;;;3.00;;
71484;SDS011;59300;52.074;4.758;2022-10-22T14:39:45;14.80;;;2.53;;
71484;SDS011;59300;52.074;4.758;2022-10-22T14:42:47;13.38;;;2.75;;
71484;SDS011;59300;52.074;4.758;2022-10-22T14:45:49;12.80;;;2.33;;
71484;SDS011;59300;52.074;4.758;2022-10-22T14:48:50;17.05;;;2.55;;
71484;SDS011;59300;52.074;4.758;2022-10-22T14:51:52;13.90;;;2.60;;
71484;SDS011;59300;52.074;4.758;2022-10-22T14:54:53;12.00;;;2.17;;
71484;SDS011;59300;52.074;4.758;2022-10-22T14:57:54;17.98;;;2.53;;
71484;SDS011;59300;52.074;4.758;2022-10-22T15:00:56;13.48;;;2.05;;
71484;SDS011;59300;52.074;4.758;2022-10-22T15:03:57;11.57;;;2.00;;
71484;SDS011;59300;52.074;4.758;2022-10-22T15:06:59;14.70;;;2.42;;
71484;SDS011;59300;52.074;4.758;2022-10-22T15:10:00;14.95;;;2.20;;
71484;SDS011;59300;52.074;4.758;2022-10-22T15:13:02;9.63;;;2.13;;
71484;SDS011;59300;52.074;4.758;2022-10-22T15:16:04;13.30;;;2.33;;
71484;SDS011;59300;52.074;4.758;2022-10-22T15:19:07;15.95;;;2.33;;
71484;SDS011;59300;52.074;4.758;2022-10-22T15:22:09;11.38;;;1.80;;
71484;SDS011;59300;52.074;4.758;2022-10-22T15:25:13;11.95;;;2.60;;
71484;SDS011;59300;52.074;4.758;2022-10-22T15:28:15;15.32;;;2.50;;
71484;SDS011;59300;52.074;4.758;2022-10-22T15:31:16;14.38;;;2.95;;
71484;SDS011;59300;52.074;4.758;2022-10-22T15:34:43;12.90;;;2.13;;
71484;SDS011;59300;52.074;4.758;2022-10-22T15:37:45;9.45;;;1.92;;
71484;SDS011;59300;52.074;4.758;2022-10-22T15:40:46;16.42;;;2.95;;
71484;SDS011;59300;52.074;4.758;2022-10-22T15:43:48;15.63;;;2.85;;
71484;SDS011;59300;52.074;4.758;2022-10-22T15:46:49;19.35;;;3.30;;
71484;SDS011;59300;52.074;4.758;2022-10-22T15:49:56;9.82;;;1.95;;
71484;SDS011;59300;52.074;4.758;2022-10-22T15:52:58;19.30;;;2.65;;
71484;SDS011;59300;52.074;4.758;2022-10-22T15:55:59;16.60;;;2.45;;
71484;SDS011;59300;52.074;4.758;2022-10-22T15:59:01;12.27;;;2.78;;
71484;SDS011;59300;52.074;4.758;2022-10-22T16:02:03;15.02;;;3.65;;
71484;SDS011;59300;52.074;4.758;2022-10-22T16:05:05;13.10;;;2.50;;
71484;SDS011;59300;52.074;4.758;2022-10-22T16:08:07;14.38;;;2.78;;
71484;SDS011;59300;52.074;4.758;2022-10-22T16:11:08;16.48;;;3.33;;
71484;SDS011;59300;52.074;4.758;2022-10-22T16:14:11;16.88;;;3.08;;
71484;SDS011;59300;52.074;4.758;2022-10-22T16:17:13;19.33;;;2.83;;
71484;SDS011;59300;52.074;4.758;2022-10-22T16:20:15;16.50;;;3.30;;
71484;SDS011;59300;52.074;4.758;2022-10-22T16:23:16;16.60;;;3.15;;
71484;SDS011;59300;52.074;4.758;2022-10-22T16:26:18;17.73;;;3.00;;
71484;SDS011;59300;52.074;4.758;2022-10-22T16:29:20;18.30;;;2.88;;
71484;SDS011;59300;52.074;4.758;2022-10-22T16:32:21;17.77;;;3.35;;
71484;SDS011;59300;52.074;4.758;2022-10-22T16:35:23;15.85;;;3.15;;
71484;SDS011;59300;52.074;4.758;2022-10-22T16:38:24;17.75;;;2.90;;
71484;SDS011;59300;52.074;4.758;2022-10-22T16:41:25;18.45;;;3.83;;
71484;SDS011;59300;52.074;4.758;2022-10-22T16:44:27;21.92;;;3.97;;
71484;SDS011;59300;52.074;4.758;2022-10-22T16:47:28;18.15;;;3.10;;
71484;SDS011;59300;52.074;4.758;2022-10-22T16:50:30;14.82;;;3.08;;
71484;SDS011;59300;52.074;4.758;2022-10-22T16:53:31;11.05;;;2.88;;
71484;SDS011;59300;52.074;4.758;2022-10-22T16:56:38;14.07;;;3.03;;
71484;SDS011;59300;52.074;4.758;2022-10-22T16:59:39;15.30;;;3.15;;
71484;SDS011;59300;52.074;4.758;2022-10-22T17:02:41;11.95;;;3.40;;
71484;SDS011;59300;52.074;4.758;2022-10-22T17:05:42;17.65;;;3.50;;
71484;SDS011;59300;52.074;4.758;2022-10-22T17:08:44;15.40;;;3.97;;
71484;SDS011;59300;52.074;4.758;2022-10-22T17:11:45;12.75;;;3.80;;
71484;SDS011;59300;52.074;4.758;2022-10-22T17:14:47;20.70;;;4.35;;
71484;SDS011;59300;52.074;4.758;2022-10-22T17:17:48;17.17;;;4.32;;
71484;SDS011;59300;52.074;4.758;2022-10-22T17:20:50;17.63;;;3.80;;
71484;SDS011;59300;52.074;4.758;2022-10-22T17:23:55;20.98;;;4.28;;
71484;SDS011;59300;52.074;4.758;2022-10-22T17:26:57;13.75;;;3.90;;
71484;SDS011;59300;52.074;4.758;2022-10-22T17:29:58;18.05;;;3.88;;
71484;SDS011;59300;52.074;4.758;2022-10-22T17:33:00;19.27;;;4.78;;
71484;SDS011;59300;52.074;4.758;2022-10-22T17:36:04;20.42;;;4.45;;
71484;SDS011;59300;52.074;4.758;2022-10-22T17:39:06;16.40;;;4.93;;
71484;SDS011;59300;52.074;4.758;2022-10-22T17:42:08;18.75;;;5.20;;
71484;SDS011;59300;52.074;4.758;2022-10-22T17:45:09;19.20;;;4.15;;
71484;SDS011;59300;52.074;4.758;2022-10-22T17:48:11;20.52;;;4.95;;
71484;SDS011;59300;52.074;4.758;2022-10-22T17:51:12;19.73;;;5.22;;
71484;SDS011;59300;52.074;4.758;2022-10-22T17:54:14;19.98;;;6.68;;
71484;SDS011;59300;52.074;4.758;2022-10-22T17:57:15;17.17;;;5.53;;
71484;SDS011;59300;52.074;4.758;2022-10-22T18:00:17;20.35;;;6.15;;
71484;SDS011;59300;52.074;4.758;2022-10-22T18:03:19;24.45;;;6.65;;
71484;SDS011;59300;52.074;4.758;2022-10-22T18:06:21;22.00;;;6.88;;
71484;SDS011;59300;52.074;4.758;2022-10-22T18:09:23;17.33;;;6.63;;
71484;SDS011;59300;52.074;4.758;2022-10-22T18:12:25;19.52;;;6.72;;
71484;SDS011;59300;52.074;4.758;2022-10-22T18:15:26;16.60;;;6.57;;
71484;SDS011;59300;52.074;4.758;2022-10-22T18:18:27;15.93;;;6.68;;
71484;SDS011;59300;52.074;4.758;2022-10-22T18:21:29;15.88;;;6.57;;
71484;SDS011;59300;52.074;4.758;2022-10-22T18:24:31;22.77;;;7.78;;
71484;SDS011;59300;52.074;4.758;2022-10-22T18:27:32;23.02;;;8.30;;
71484;SDS011;59300;52.074;4.758;2022-10-22T18:30:36;23.33;;;8.15;;
71484;SDS011;59300;52.074;4.758;2022-10-22T18:36:40;25.65;;;8.52;;
71484;SDS011;59300;52.074;4.758;2022-10-22T18:39:42;21.35;;;8.02;;
71484;SDS011;59300;52.074;4.758;2022-10-22T18:42:43;24.38;;;8.50;;
71484;SDS011;59300;52.074;4.758;2022-10-22T18:45:46;27.92;;;8.48;;
71484;SDS011;59300;52.074;4.758;2022-10-22T18:48:48;23.10;;;8.82;;
71484;SDS011;59300;52.074;4.758;2022-10-22T18:51:50;26.30;;;10.00;;
71484;SDS011;59300;52.074;4.758;2022-10-22T18:54:51;20.70;;;9.57;;
71484;SDS011;59300;52.074;4.758;2022-10-22T18:57:52;23.50;;;11.40;;
71484;SDS011;59300;52.074;4.758;2022-10-22T19:00:54;24.13;;;11.32;;
71484;SDS011;59300;52.074;4.758;2022-10-22T19:03:55;27.27;;;12.00;;
71484;SDS011;59300;52.074;4.758;2022-10-22T19:06:57;23.58;;;12.07;;
71484;SDS011;59300;52.074;4.758;2022-10-22T19:09:59;29.30;;;13.00;;
71484;SDS011;59300;52.074;4.758;2022-10-22T19:13:00;29.75;;;12.77;;
71484;SDS011;59300;52.074;4.758;2022-10-22T19:16:02;26.13;;;13.27;;
71484;SDS011;59300;52.074;4.758;2022-10-22T19:19:06;30.98;;;14.18;;
71484;SDS011;59300;52.074;4.758;2022-10-22T19:22:07;26.02;;;13.25;;
71484;SDS011;59300;52.074;4.758;2022-10-22T19:25:09;28.52;;;12.68;;
71484;SDS011;59300;52.074;4.758;2022-10-22T19:28:12;23.98;;;12.52;;
71484;SDS011;59300;52.074;4.758;2022-10-22T19:31:16;23.88;;;13.48;;
71484;SDS011;59300;52.074;4.758;2022-10-22T19:34:19;21.30;;;11.88;;
71484;SDS011;59300;52.074;4.758;2022-10-22T19:37:20;29.10;;;13.15;;
71484;SDS011;59300;52.074;4.758;2022-10-22T19:40:22;25.95;;;14.40;;
71484;SDS011;59300;52.074;4.758;2022-10-22T19:43:23;27.73;;;14.40;;
71484;SDS011;59300;52.074;4.758;2022-10-22T19:46:25;26.20;;;13.50;;
71484;SDS011;59300;52.074;4.758;2022-10-22T19:49:27;29.83;;;15.38;;
71484;SDS011;59300;52.074;4.758;2022-10-22T19:52:29;35.78;;;16.25;;